createdAt,value
2018-11-02T00:00:22.112Z,98.60
2018-11-02T00:01:22.150Z,98.41
2018-11-02T00:02:22.426Z,98.12
2018-11-02T00:03:22.440Z,98.17
2018-11-02T00:04:22.659Z,98.26
2018-11-02T00:05:22.870Z,97.78
2018-11-02T00:06:23.190Z,97.78
2018-11-02T00:07:23.180Z,98.36
2018-11-02T00:08:23.391Z,98.64
2018-11-02T00:09:23.570Z,98.64
2018-11-02T00:10:23.681Z,98.55
2018-11-02T00:11:24.872Z,98.55
2018-11-02T00:12:36.660Z,99.11
2018-11-02T00:13:33.254Z,99.11
2018-11-02T00:14:32.225Z,99.50
2018-11-02T00:15:24.635Z,99.99
2018-11-02T00:16:24.852Z,99.99
2018-11-02T00:17:32.671Z,99.99
2018-11-02T00:18:32.668Z,99.99
2018-11-02T00:19:32.744Z,99.99
2018-11-02T00:20:25.467Z,99.99
2018-11-02T00:21:25.677Z,99.88
2018-11-02T00:22:25.697Z,99.69
2018-11-02T00:23:25.874Z,99.50
2018-11-02T00:24:26.096Z,99.50
2018-11-02T00:25:26.318Z,99.78
2018-11-02T00:26:26.443Z,99.97
2018-11-02T00:27:26.576Z,99.99
2018-11-02T00:28:26.766Z,99.99
2018-11-02T00:29:26.931Z,99.99
2018-11-02T00:30:27.109Z,99.69
2018-11-02T00:31:27.389Z,99.30
2018-11-02T00:32:27.514Z,99.21
2018-11-02T00:33:27.737Z,99.78
2018-11-02T00:34:27.770Z,99.78
2018-11-02T00:35:27.938Z,99.88
2018-11-02T00:36:27.841Z,99.99
2018-11-02T00:37:28.240Z,99.88
2018-11-02T00:38:28.212Z,99.99
2018-11-02T00:39:28.311Z,99.99
2018-11-02T00:40:28.419Z,99.99
2018-11-02T00:41:28.514Z,99.99
2018-11-02T00:42:28.663Z,99.99
2018-11-02T00:43:28.753Z,99.99
2018-11-02T00:44:28.860Z,99.99
2018-11-02T00:45:29.023Z,99.99
2018-11-02T00:46:29.150Z,99.99
2018-11-02T00:47:29.311Z,99.99
2018-11-02T00:48:29.427Z,99.99
2018-11-02T00:49:29.535Z,99.99
2018-11-02T00:50:29.644Z,99.69
2018-11-02T00:51:29.740Z,99.26
2018-11-02T00:52:29.894Z,99.64
2018-11-02T00:53:30.001Z,99.11
2018-11-02T00:54:30.072Z,99.11
2018-11-02T00:55:30.286Z,99.73
2018-11-02T00:56:30.505Z,99.54
2018-11-02T00:57:30.619Z,99.73
2018-11-02T00:58:30.877Z,99.64
2018-11-02T00:59:30.984Z,99.99
2018-11-02T01:00:31.083Z,99.99
2018-11-02T01:01:31.222Z,99.99
2018-11-02T01:02:31.310Z,99.99
2018-11-02T01:03:31.567Z,99.99
2018-11-02T01:04:31.687Z,99.99
2018-11-02T01:05:31.888Z,99.99
2018-11-02T01:06:31.987Z,99.99
2018-11-02T01:07:32.098Z,99.99
2018-11-02T01:08:32.200Z,99.99
2018-11-02T01:09:32.377Z,99.99
2018-11-02T01:10:32.502Z,99.99
2018-11-02T01:11:32.643Z,99.99
2018-11-02T01:12:32.754Z,99.99
2018-11-02T01:13:32.886Z,99.99
2018-11-02T01:14:33.000Z,99.99
2018-11-02T01:15:33.174Z,99.99
2018-11-02T01:16:33.286Z,99.99
2018-11-02T01:17:33.369Z,99.99
2018-11-02T01:18:33.488Z,99.99
2018-11-02T01:19:33.619Z,99.99
2018-11-02T01:20:33.718Z,99.99
2018-11-02T01:21:33.966Z,99.99
2018-11-02T01:22:34.069Z,99.99
2018-11-02T01:23:34.186Z,99.99
2018-11-02T01:24:34.375Z,99.99
2018-11-02T01:25:34.614Z,99.99
2018-11-02T01:26:34.713Z,99.99
2018-11-02T01:27:34.807Z,99.99
2018-11-02T01:28:35.006Z,99.99
2018-11-02T01:29:35.233Z,99.99
2018-11-02T01:30:35.454Z,99.99
2018-11-02T01:31:35.677Z,99.99
2018-11-02T01:32:35.775Z,99.99
2018-11-02T01:33:35.932Z,99.99
2018-11-02T01:34:36.063Z,99.99
2018-11-02T01:35:36.311Z,99.99
2018-11-02T01:36:36.301Z,99.99
2018-11-02T01:37:36.444Z,99.99
2018-11-02T01:38:36.577Z,99.99
2018-11-02T01:39:36.736Z,99.99
2018-11-02T01:40:36.944Z,99.99
2018-11-02T01:41:37.074Z,99.99
2018-11-02T01:42:37.251Z,99.99
2018-11-02T01:43:37.385Z,99.99
2018-11-02T01:44:37.468Z,99.99
2018-11-02T01:45:37.739Z,99.99
2018-11-02T01:46:37.920Z,99.99
2018-11-02T01:47:38.048Z,99.99
2018-11-02T01:48:38.217Z,99.99
2018-11-02T01:49:38.350Z,99.99
2018-11-02T01:50:38.488Z,99.99
2018-11-02T01:51:38.587Z,99.99
2018-11-02T01:52:38.702Z,99.99
2018-11-02T01:53:38.800Z,99.99
2018-11-02T01:54:38.893Z,99.99
2018-11-02T01:55:39.217Z,99.99
2018-11-02T01:56:39.306Z,99.99
2018-11-02T01:57:39.580Z,99.99
2018-11-02T01:58:39.692Z,99.99
2018-11-02T01:59:39.770Z,99.99
2018-11-02T02:00:40.015Z,99.99
2018-11-02T02:01:40.086Z,99.99
2018-11-02T02:02:40.174Z,99.99
2018-11-02T02:03:40.377Z,99.99
2018-11-02T02:04:40.610Z,99.99
2018-11-02T02:05:40.819Z,99.99
2018-11-02T02:06:41.017Z,99.99
2018-11-02T02:07:41.127Z,99.99
2018-11-02T02:08:41.251Z,99.99
2018-11-02T02:09:41.365Z,99.99
2018-11-02T02:10:41.534Z,99.99
2018-11-02T02:11:41.666Z,99.99
2018-11-02T02:12:41.771Z,99.99
2018-11-02T02:13:41.912Z,99.99
2018-11-02T02:14:42.029Z,99.99
2018-11-02T02:15:42.110Z,99.99
2018-11-02T02:16:42.344Z,99.99
2018-11-02T02:17:42.437Z,99.99
2018-11-02T02:18:42.679Z,99.99
2018-11-02T02:19:42.751Z,99.99
2018-11-02T02:20:42.983Z,99.99
2018-11-02T02:21:43.085Z,99.99
2018-11-02T02:22:43.215Z,99.99
2018-11-02T02:23:43.317Z,99.99
2018-11-02T02:24:43.515Z,99.99
2018-11-02T02:25:43.722Z,99.99
2018-11-02T02:26:43.939Z,99.99
2018-11-02T02:27:44.177Z,99.99
2018-11-02T02:28:44.309Z,99.99
2018-11-02T02:29:44.452Z,99.99
2018-11-02T02:30:52.712Z,99.99
2018-11-02T02:31:52.804Z,99.99
2018-11-02T02:32:52.866Z,99.99
2018-11-02T02:33:45.048Z,99.99
2018-11-02T02:34:45.267Z,99.99
2018-11-02T02:35:53.065Z,99.99
2018-11-02T02:36:53.140Z,99.99
2018-11-02T02:37:53.172Z,99.99
2018-11-02T02:38:54.242Z,99.99
2018-11-02T02:39:46.198Z,99.99
2018-11-02T02:40:46.439Z,99.99
2018-11-02T02:41:46.568Z,99.99
2018-11-02T02:42:46.660Z,99.99
2018-11-02T02:43:46.766Z,99.99
2018-11-02T02:44:46.892Z,99.99
2018-11-02T02:45:47.051Z,99.99
2018-11-02T02:46:47.159Z,99.99
2018-11-02T02:47:47.409Z,99.99
2018-11-02T02:48:47.566Z,99.99
2018-11-02T02:49:47.608Z,99.99
2018-11-02T02:50:47.822Z,99.99
2018-11-02T02:51:48.043Z,99.99
2018-11-02T02:52:48.308Z,99.99
2018-11-02T02:53:48.381Z,99.99
2018-11-02T02:54:48.642Z,99.99
2018-11-02T02:55:48.725Z,99.99
2018-11-02T02:56:48.940Z,99.99
2018-11-02T02:57:49.185Z,99.99
2018-11-02T02:58:49.301Z,99.99
2018-11-02T02:59:49.393Z,99.99
2018-11-02T03:00:49.481Z,99.99
2018-11-02T03:01:49.705Z,99.99
2018-11-02T03:02:49.956Z,99.99
2018-11-02T03:03:50.040Z,99.99
2018-11-02T03:04:50.301Z,99.99
2018-11-02T03:05:50.405Z,99.99
2018-11-02T03:06:50.516Z,99.99
2018-11-02T03:07:50.629Z,99.99
2018-11-02T03:08:50.731Z,99.99
2018-11-02T03:09:50.847Z,99.99
2018-11-02T03:10:51.131Z,99.99
2018-11-02T03:11:51.125Z,99.99
2018-11-02T03:12:51.282Z,99.99
2018-11-02T03:13:51.349Z,99.99
2018-11-02T03:14:51.584Z,99.99
2018-11-02T03:15:51.670Z,99.99
2018-11-02T03:16:51.875Z,99.99
2018-11-02T03:17:52.086Z,99.99
2018-11-02T03:18:52.312Z,99.99
2018-11-02T03:19:52.559Z,99.99
2018-11-02T03:20:52.610Z,99.99
2018-11-02T03:21:52.928Z,99.99
2018-11-02T03:22:53.056Z,99.99
2018-11-02T03:23:53.208Z,99.99
2018-11-02T03:24:53.350Z,99.99
2018-11-02T03:25:53.427Z,99.98
2018-11-02T03:26:53.674Z,99.99
2018-11-02T03:27:53.785Z,99.99
2018-11-02T03:28:53.896Z,99.99
2018-11-02T03:29:54.005Z,99.99
2018-11-02T03:30:54.074Z,99.99
2018-11-02T03:31:54.298Z,99.99
2018-11-02T03:32:54.535Z,99.99
2018-11-02T03:33:58.292Z,99.99
2018-11-02T03:34:58.973Z,99.99
2018-11-02T03:35:58.372Z,99.99
2018-11-02T03:36:56.230Z,99.99
2018-11-02T03:37:55.350Z,99.99
2018-11-02T03:38:58.178Z,99.99
2018-11-02T03:40:01.032Z,99.99
2018-11-02T03:40:58.881Z,99.99
2018-11-02T03:41:59.795Z,99.99
2018-11-02T03:43:02.875Z,99.99
2018-11-02T03:44:00.061Z,99.99
2018-11-02T03:44:58.955Z,99.99
2018-11-02T03:45:58.686Z,99.98
2018-11-02T03:47:00.950Z,99.99
2018-11-02T03:47:58.941Z,99.98
2018-11-02T03:49:00.035Z,99.93
2018-11-02T03:50:05.160Z,99.99
2018-11-02T03:51:00.333Z,99.99
2018-11-02T03:52:00.582Z,99.99
2018-11-02T03:52:59.055Z,99.99
2018-11-02T03:54:01.153Z,99.99
2018-11-02T03:55:01.815Z,99.99
2018-11-02T03:56:00.589Z,99.99
2018-11-02T03:57:00.107Z,99.99
2018-11-02T03:58:02.084Z,99.99
2018-11-02T03:59:00.700Z,99.99
2018-11-02T04:00:03.124Z,99.99
2018-11-02T04:01:00.191Z,99.99
2018-11-02T04:02:03.035Z,99.99
2018-11-02T04:03:01.795Z,99.99
2018-11-02T04:04:03.029Z,99.99
2018-11-02T04:05:01.570Z,99.99
2018-11-02T04:05:59.902Z,99.99
2018-11-02T04:07:04.748Z,99.99
2018-11-02T04:08:01.647Z,99.99
2018-11-02T04:09:03.335Z,99.99
2018-11-02T04:10:02.779Z,99.99
2018-11-02T04:11:02.399Z,99.99
2018-11-02T04:12:02.605Z,99.99
2018-11-02T04:13:01.048Z,99.99
2018-11-02T04:14:02.590Z,99.99
2018-11-02T04:15:02.558Z,99.99
2018-11-02T04:16:03.192Z,99.99
2018-11-02T04:17:06.402Z,99.99
2018-11-02T04:18:03.382Z,99.99
2018-11-02T04:19:04.971Z,99.99
2018-11-02T04:20:02.108Z,99.99
2018-11-02T04:21:03.270Z,99.99
2018-11-02T04:22:04.722Z,99.99
2018-11-02T04:23:02.934Z,99.99
2018-11-02T04:24:03.548Z,99.99
2018-11-02T04:25:04.014Z,99.99
2018-11-02T04:26:04.218Z,99.99
2018-11-02T04:27:03.987Z,99.99
2018-11-02T04:28:04.151Z,99.99
2018-11-02T04:29:04.708Z,99.99
2018-11-02T04:30:05.060Z,99.99
2018-11-02T04:31:07.497Z,99.99
2018-11-02T04:32:03.992Z,99.99
2018-11-02T04:33:04.272Z,99.99
2018-11-02T04:34:06.092Z,99.99
2018-11-02T04:35:08.347Z,99.99
2018-11-02T04:36:04.685Z,99.99
2018-11-02T04:37:07.945Z,99.99
2018-11-02T04:38:09.272Z,99.99
2018-11-02T04:39:07.280Z,99.99
2018-11-02T04:40:05.348Z,99.99
2018-11-02T04:41:05.581Z,99.99
2018-11-02T04:42:06.141Z,99.99
2018-11-02T04:43:06.310Z,99.99
2018-11-02T04:44:06.303Z,99.99
2018-11-02T04:45:06.789Z,99.99
2018-11-02T04:46:06.330Z,99.99
2018-11-02T04:47:07.505Z,99.99
2018-11-02T04:48:06.833Z,99.99
2018-11-02T04:49:14.790Z,99.99
2018-11-02T04:50:14.771Z,99.99
2018-11-02T04:51:15.196Z,99.99
2018-11-02T04:52:07.368Z,99.99
2018-11-02T04:53:08.451Z,99.99
2018-11-02T04:54:15.052Z,99.99
2018-11-02T04:55:16.967Z,99.99
2018-11-02T04:56:20.958Z,99.99
2018-11-02T04:57:20.808Z,99.99
2018-11-02T04:58:08.104Z,99.99
2018-11-02T04:59:08.278Z,99.99
2018-11-02T05:00:08.410Z,99.99
2018-11-02T05:01:08.497Z,99.99
2018-11-02T05:02:08.733Z,99.99
2018-11-02T05:03:08.880Z,99.99
2018-11-02T05:04:09.015Z,99.99
2018-11-02T05:05:09.099Z,99.99
2018-11-02T05:06:09.338Z,99.99
2018-11-02T05:07:09.455Z,99.99
2018-11-02T05:08:09.595Z,99.99
2018-11-02T05:09:09.686Z,99.99
2018-11-02T05:10:09.793Z,99.99
2018-11-02T05:11:09.929Z,99.99
2018-11-02T05:12:10.016Z,99.99
2018-11-02T05:13:10.108Z,99.99
2018-11-02T05:14:10.339Z,99.99
2018-11-02T05:15:10.465Z,99.99
2018-11-02T05:16:10.639Z,99.99
2018-11-02T05:17:10.742Z,99.99
2018-11-02T05:18:10.846Z,99.99
2018-11-02T05:19:10.955Z,99.99
2018-11-02T05:20:11.049Z,99.99
2018-11-02T05:21:11.350Z,99.99
2018-11-02T05:22:11.451Z,99.99
2018-11-02T05:23:11.636Z,99.99
2018-11-02T05:24:11.724Z,99.99
2018-11-02T05:25:11.837Z,99.99
2018-11-02T05:26:12.122Z,99.99
2018-11-02T05:27:12.238Z,99.99
2018-11-02T05:28:12.368Z,99.99
2018-11-02T05:29:12.453Z,99.99
2018-11-02T05:30:12.660Z,99.99
2018-11-02T05:31:12.887Z,99.99
2018-11-02T05:32:12.996Z,99.99
2018-11-02T05:33:13.135Z,99.99
2018-11-02T05:34:13.211Z,99.99
2018-11-02T05:35:13.459Z,99.99
2018-11-02T05:36:13.600Z,99.99
2018-11-02T05:37:13.735Z,99.99
2018-11-02T05:38:13.839Z,99.99
2018-11-02T05:39:14.188Z,99.99
2018-11-02T05:40:14.225Z,99.99
2018-11-02T05:41:14.300Z,99.99
2018-11-02T05:42:14.402Z,99.99
2018-11-02T05:43:14.468Z,99.99
2018-11-02T05:44:14.715Z,99.99
2018-11-02T05:45:14.811Z,99.99
2018-11-02T05:46:14.937Z,99.99
2018-11-02T05:47:15.103Z,99.99
2018-11-02T05:48:15.142Z,99.99
2018-11-02T05:49:15.231Z,99.99
2018-11-02T05:50:15.341Z,99.99
2018-11-02T05:51:15.487Z,99.99
2018-11-02T05:52:15.622Z,99.99
2018-11-02T05:53:15.777Z,99.99
2018-11-02T05:54:15.895Z,99.99
2018-11-02T05:55:16.128Z,99.99
2018-11-02T05:56:16.275Z,99.99
2018-11-02T05:57:16.478Z,99.99
2018-11-02T05:58:16.697Z,99.99
2018-11-02T05:59:16.926Z,99.99
2018-11-02T06:00:17.046Z,99.99
2018-11-02T06:01:17.184Z,99.99
2018-11-02T06:02:17.271Z,99.99
2018-11-02T06:03:17.531Z,99.99
2018-11-02T06:04:17.628Z,99.99
2018-11-02T06:05:17.709Z,99.99
2018-11-02T06:06:17.951Z,99.99
2018-11-02T06:07:18.035Z,99.99
2018-11-02T06:08:18.435Z,99.99
2018-11-02T06:09:18.688Z,99.99
2018-11-02T06:10:19.155Z,99.99
2018-11-02T06:11:18.725Z,99.99
2018-11-02T06:12:19.298Z,99.99
2018-11-02T06:13:20.124Z,99.99
2018-11-02T06:14:19.149Z,99.99
2018-11-02T06:15:19.255Z,99.99
2018-11-02T06:16:19.357Z,99.99
2018-11-02T06:17:19.440Z,99.99
2018-11-02T06:18:19.670Z,99.99
2018-11-02T06:19:19.803Z,99.99
2018-11-02T06:20:19.902Z,99.99
2018-11-02T06:21:20.120Z,99.99
2018-11-02T06:22:20.245Z,99.99
2018-11-02T06:23:20.337Z,99.99
2018-11-02T06:24:20.515Z,99.99
2018-11-02T06:25:20.573Z,99.99
2018-11-02T06:26:20.648Z,99.99
2018-11-02T06:27:20.895Z,99.99
2018-11-02T06:28:21.050Z,99.99
2018-11-02T06:29:21.158Z,99.99
2018-11-02T06:30:22.177Z,99.99
2018-11-02T06:31:21.324Z,99.99
2018-11-02T06:32:21.508Z,99.99
2018-11-02T06:33:21.689Z,99.99
2018-11-02T06:34:21.880Z,99.99
2018-11-02T06:35:22.061Z,99.99
2018-11-02T06:36:22.250Z,99.99
2018-11-02T06:37:22.433Z,99.99
2018-11-02T06:38:22.612Z,99.99
2018-11-02T06:39:22.876Z,99.99
2018-11-02T06:40:22.929Z,99.99
2018-11-02T06:41:23.281Z,99.99
2018-11-02T06:42:23.428Z,99.99
2018-11-02T06:43:23.396Z,99.99
2018-11-02T06:44:23.802Z,99.99
2018-11-02T06:45:23.644Z,99.99
2018-11-02T06:46:23.730Z,99.99
2018-11-02T06:47:23.984Z,99.99
2018-11-02T06:48:24.083Z,99.99
2018-11-02T06:49:24.308Z,99.99
2018-11-02T06:50:24.428Z,99.99
2018-11-02T06:51:24.580Z,99.99
2018-11-02T06:52:24.724Z,99.99
2018-11-02T06:53:24.861Z,99.93
2018-11-02T06:54:24.952Z,99.99
2018-11-02T06:55:25.111Z,99.74
2018-11-02T06:56:25.205Z,99.99
2018-11-02T06:57:25.312Z,99.84
2018-11-02T06:58:25.394Z,99.99
2018-11-02T06:59:25.644Z,99.74
2018-11-02T07:00:25.740Z,99.99
2018-11-02T07:01:25.814Z,99.74
2018-11-02T07:02:25.968Z,99.99
2018-11-02T07:03:26.122Z,99.36
2018-11-02T07:04:26.208Z,99.93
2018-11-02T07:05:26.350Z,99.93
2018-11-02T07:06:26.472Z,99.65
2018-11-02T07:07:26.684Z,99.93
2018-11-02T07:08:34.679Z,99.74
2018-11-02T07:09:26.903Z,99.65
2018-11-02T07:10:34.753Z,99.46
2018-11-02T07:11:27.150Z,99.74
2018-11-02T07:12:34.855Z,99.46
2018-11-02T07:13:34.884Z,99.99
2018-11-02T07:14:35.475Z,99.65
2018-11-02T07:15:27.772Z,99.93
2018-11-02T07:16:27.901Z,99.74
2018-11-02T07:17:28.027Z,99.99
2018-11-02T07:18:28.133Z,99.74
2018-11-02T07:19:28.224Z,99.99
2018-11-02T07:20:28.436Z,99.99
2018-11-02T07:21:28.661Z,99.65
2018-11-02T07:22:28.765Z,99.74
2018-11-02T07:23:28.892Z,99.84
2018-11-02T07:24:28.989Z,99.65
2018-11-02T07:25:29.087Z,99.51
2018-11-02T07:26:29.195Z,99.65
2018-11-02T07:27:29.299Z,99.84
2018-11-02T07:28:29.394Z,99.99
2018-11-02T07:29:29.496Z,99.99
2018-11-02T07:30:29.638Z,99.99
2018-11-02T07:31:29.706Z,99.55
2018-11-02T07:32:29.878Z,99.93
2018-11-02T07:33:29.981Z,99.99
2018-11-02T07:34:30.117Z,99.74
2018-11-02T07:35:30.214Z,99.99
2018-11-02T07:36:30.364Z,99.99
2018-11-02T07:37:30.459Z,99.99
2018-11-02T07:38:30.591Z,99.79
2018-11-02T07:39:30.717Z,99.69
2018-11-02T07:40:30.830Z,99.41
2018-11-02T07:41:30.916Z,99.89
2018-11-02T07:42:31.121Z,99.13
2018-11-02T07:43:31.336Z,99.22
2018-11-02T07:44:31.470Z,98.94
2018-11-02T07:45:31.667Z,99.13
2018-11-02T07:46:31.754Z,99.69
2018-11-02T07:47:31.871Z,98.55
2018-11-02T07:48:32.075Z,99.03
2018-11-02T07:49:32.328Z,98.94
2018-11-02T07:50:32.492Z,99.37
2018-11-02T07:51:32.634Z,98.60
2018-11-02T07:52:32.747Z,98.22
2018-11-02T07:53:32.851Z,98.22
2018-11-02T07:54:32.954Z,98.51
2018-11-02T07:55:33.184Z,97.46
2018-11-02T07:56:33.412Z,97.27
2018-11-02T07:57:33.619Z,97.56
2018-11-02T07:58:33.745Z,97.36
2018-11-02T07:59:33.871Z,97.32
2018-11-02T08:00:33.986Z,97.61
2018-11-02T08:01:34.085Z,96.94
2018-11-02T08:02:34.213Z,96.65
2018-11-02T08:03:34.339Z,96.36
2018-11-02T08:04:36.258Z,96.36
2018-11-02T08:05:34.594Z,96.65
2018-11-02T08:06:34.865Z,96.36
2018-11-02T08:07:34.943Z,95.65
2018-11-02T08:08:35.227Z,95.56
2018-11-02T08:09:35.347Z,94.51
2018-11-02T08:10:35.450Z,94.12
2018-11-02T08:11:35.733Z,94.03
2018-11-02T08:12:35.803Z,94.03
2018-11-02T08:13:36.004Z,94.03
2018-11-02T08:14:36.072Z,93.17
2018-11-02T08:15:36.157Z,92.60
2018-11-02T08:16:36.361Z,91.17
2018-11-02T08:17:36.588Z,92.03
2018-11-02T08:18:36.686Z,92.22
2018-11-02T08:19:36.807Z,92.22
2018-11-02T08:20:36.998Z,91.46
2018-11-02T08:21:37.213Z,91.60
2018-11-02T08:22:37.328Z,91.55
2018-11-02T08:23:38.018Z,91.69
2018-11-02T08:24:37.846Z,91.21
2018-11-02T08:25:37.692Z,90.55
2018-11-02T08:26:37.810Z,90.93
2018-11-02T08:27:39.184Z,90.64
2018-11-02T08:28:39.335Z,90.36
2018-11-02T08:29:39.093Z,90.07
2018-11-02T08:30:38.446Z,89.92
2018-11-02T08:31:38.640Z,89.54
2018-11-02T08:32:38.864Z,89.92
2018-11-02T08:33:39.089Z,88.40
2018-11-02T08:34:39.243Z,88.59
2018-11-02T08:35:39.368Z,88.01
2018-11-02T08:36:39.455Z,88.49
2018-11-02T08:37:39.550Z,87.44
2018-11-02T08:38:39.771Z,86.87
2018-11-02T08:39:40.051Z,87.10
2018-11-02T08:40:40.190Z,86.82
2018-11-02T08:41:40.346Z,86.91
2018-11-02T08:42:40.418Z,85.58
2018-11-02T08:43:40.655Z,85.05
2018-11-02T08:44:40.761Z,84.38
2018-11-02T08:45:40.870Z,84.28
2018-11-02T08:46:41.179Z,83.51
2018-11-02T08:47:41.123Z,83.08
2018-11-02T08:48:41.233Z,82.46
2018-11-02T08:49:41.415Z,82.94
2018-11-02T08:50:41.500Z,83.04
2018-11-02T08:51:41.747Z,83.51
2018-11-02T08:52:41.927Z,83.23
2018-11-02T08:53:42.007Z,83.33
2018-11-02T08:54:42.128Z,82.70
2018-11-02T08:55:42.258Z,81.74
2018-11-02T08:56:42.389Z,81.74
2018-11-02T08:57:42.519Z,82.03
2018-11-02T08:58:43.279Z,81.55
2018-11-02T08:59:42.779Z,80.98
2018-11-02T09:00:43.200Z,81.21
2018-11-02T09:01:43.073Z,79.83
2018-11-02T09:02:43.161Z,80.79
2018-11-02T09:03:43.366Z,81.26
2018-11-02T09:04:43.567Z,81.16
2018-11-02T09:05:43.782Z,81.84
2018-11-02T09:06:44.001Z,82.12
2018-11-02T09:07:44.225Z,82.60
2018-11-02T09:08:44.397Z,82.31
2018-11-02T09:09:44.501Z,82.22
2018-11-02T09:10:44.664Z,80.87
2018-11-02T09:11:44.801Z,77.78
2018-11-02T09:12:44.928Z,74.83
2018-11-02T09:13:45.045Z,72.81
2018-11-02T09:14:45.214Z,72.39
2018-11-02T09:15:45.333Z,72.05
2018-11-02T09:16:45.433Z,71.63
2018-11-02T09:17:45.672Z,72.20
2018-11-02T09:18:45.798Z,71.37
2018-11-02T09:19:45.911Z,69.36
2018-11-02T09:20:46.050Z,69.78
2018-11-02T09:21:46.159Z,68.31
2018-11-02T09:22:46.309Z,66.84
2018-11-02T09:23:46.417Z,67.00
2018-11-02T09:24:46.536Z,68.21
2018-11-02T09:25:46.667Z,69.81
2018-11-02T09:26:46.773Z,71.27
2018-11-02T09:27:54.716Z,72.61
2018-11-02T09:28:48.474Z,73.72
2018-11-02T09:29:47.336Z,73.82
2018-11-02T09:30:48.681Z,74.49
2018-11-02T09:31:47.764Z,74.97
2018-11-02T09:32:48.025Z,74.87
2018-11-02T09:33:48.044Z,75.07
2018-11-02T09:34:48.222Z,73.95
2018-11-02T09:35:48.575Z,73.47
2018-11-02T09:36:49.239Z,72.80
2018-11-02T09:37:49.510Z,72.99
2018-11-02T09:38:49.004Z,73.57
2018-11-02T09:39:49.213Z,72.20
2018-11-02T09:40:49.117Z,71.63
2018-11-02T09:41:49.194Z,71.05
2018-11-02T09:42:49.569Z,69.62
2018-11-02T09:43:49.628Z,69.71
2018-11-02T09:44:49.843Z,70.06
2018-11-02T09:45:50.116Z,71.08
2018-11-02T09:46:50.213Z,72.80
2018-11-02T09:47:50.363Z,72.86
2018-11-02T09:48:50.444Z,73.63
2018-11-02T09:49:50.667Z,74.16
2018-11-02T09:50:51.037Z,74.65
2018-11-02T09:51:51.046Z,75.02
2018-11-02T09:52:51.262Z,75.22
2018-11-02T09:53:51.443Z,75.27
2018-11-02T09:54:51.530Z,75.85
2018-11-02T09:55:51.770Z,76.23
2018-11-02T09:56:52.015Z,76.90
2018-11-02T09:57:52.131Z,77.00
2018-11-02T09:58:52.072Z,76.90
2018-11-02T09:59:52.283Z,75.95
2018-11-02T10:00:52.975Z,77.00
2018-11-02T10:01:52.775Z,76.62
2018-11-02T10:02:52.848Z,76.42
2018-11-02T10:03:53.072Z,77.28
2018-11-02T10:04:53.165Z,76.62
2018-11-02T10:05:53.483Z,77.00
2018-11-02T10:06:53.559Z,76.52
2018-11-02T10:07:53.786Z,76.42
2018-11-02T10:08:53.988Z,76.52
2018-11-02T10:09:54.237Z,76.33
2018-11-02T10:10:54.326Z,76.71
2018-11-02T10:11:54.607Z,75.47
2018-11-02T10:12:54.681Z,75.85
2018-11-02T10:13:54.761Z,76.14
2018-11-02T10:14:55.067Z,77.09
2018-11-02T10:15:54.979Z,76.77
2018-11-02T10:16:55.077Z,77.06
2018-11-02T10:17:55.176Z,77.53
2018-11-02T10:18:55.268Z,77.72
2018-11-02T10:19:55.527Z,77.82
2018-11-02T10:20:55.627Z,78.20
2018-11-02T10:21:55.732Z,78.36
2018-11-02T10:22:55.838Z,78.64
2018-11-02T10:23:56.034Z,79.41
2018-11-02T10:24:56.161Z,79.41
2018-11-02T10:25:56.384Z,80.07
2018-11-02T10:26:56.512Z,80.65
2018-11-02T10:27:56.631Z,80.55
2018-11-02T10:28:57.748Z,80.84
2018-11-02T10:29:57.015Z,80.55
2018-11-02T10:30:57.117Z,80.74
2018-11-02T10:31:57.375Z,80.74
2018-11-02T10:32:57.467Z,80.65
2018-11-02T10:33:57.771Z,80.65
2018-11-02T10:34:57.874Z,79.88
2018-11-02T10:35:58.054Z,79.60
2018-11-02T10:36:58.083Z,79.60
2018-11-02T10:37:58.191Z,79.98
2018-11-02T10:38:58.274Z,79.69
2018-11-02T10:39:58.394Z,79.60
2018-11-02T10:40:58.515Z,79.79
2018-11-02T10:41:58.613Z,79.50
2018-11-02T10:42:58.719Z,79.12
2018-11-02T10:43:58.827Z,79.54
2018-11-02T10:44:58.969Z,79.64
2018-11-02T10:45:59.101Z,79.83
2018-11-02T10:46:59.264Z,79.73
2018-11-02T10:47:59.415Z,79.54
2018-11-02T10:48:59.589Z,79.44
2018-11-02T10:49:59.653Z,79.25
2018-11-02T10:50:59.886Z,78.87
2018-11-02T10:51:59.998Z,78.58
2018-11-02T10:53:00.123Z,78.87
2018-11-02T10:54:01.345Z,78.49
2018-11-02T10:55:00.361Z,78.97
2018-11-02T10:56:00.464Z,79.54
2018-11-02T10:57:00.613Z,79.25
2018-11-02T10:58:00.725Z,79.50
2018-11-02T10:59:00.828Z,79.60
2018-11-02T11:00:00.991Z,79.60
2018-11-02T11:01:01.274Z,80.65
2018-11-02T11:02:01.215Z,80.93
2018-11-02T11:03:01.325Z,80.65
2018-11-02T11:04:01.447Z,80.55
2018-11-02T11:05:01.525Z,80.65
2018-11-02T11:06:01.795Z,80.65
2018-11-02T11:07:02.035Z,80.36
2018-11-02T11:08:02.119Z,79.98
2018-11-02T11:09:02.230Z,80.93
2018-11-02T11:10:02.370Z,80.46
2018-11-02T11:11:02.769Z,80.93
2018-11-02T11:12:02.694Z,80.07
2018-11-02T11:13:03.165Z,79.50
2018-11-02T11:14:02.867Z,79.22
2018-11-02T11:15:02.944Z,78.93
2018-11-02T11:16:03.183Z,79.60
2018-11-02T11:17:03.268Z,79.41
2018-11-02T11:18:06.586Z,80.07
2018-11-02T11:19:06.617Z,80.17
2018-11-02T11:20:03.889Z,79.60
2018-11-02T11:21:04.061Z,79.88
2018-11-02T11:22:04.112Z,79.31
2018-11-02T11:23:04.359Z,79.25
2018-11-02T11:24:04.427Z,79.54
2018-11-02T11:25:04.673Z,79.54
2018-11-02T11:26:04.797Z,78.68
2018-11-02T11:27:04.878Z,78.58
2018-11-02T11:28:05.137Z,78.11
2018-11-02T11:29:05.268Z,78.20
2018-11-02T11:30:05.391Z,78.30
2018-11-02T11:31:05.522Z,77.63
2018-11-02T11:32:05.618Z,77.48
2018-11-02T11:33:05.829Z,76.62
2018-11-02T11:34:06.056Z,77.23
2018-11-02T11:35:06.258Z,76.65
2018-11-02T11:36:06.465Z,76.65
2018-11-02T11:37:06.698Z,76.18
2018-11-02T11:38:06.799Z,74.93
2018-11-02T11:39:06.855Z,74.36
2018-11-02T11:40:07.083Z,74.36
2018-11-02T11:41:07.304Z,74.70
2018-11-02T11:42:07.513Z,74.22
2018-11-02T11:43:07.804Z,74.22
2018-11-02T11:44:07.899Z,73.75
2018-11-02T11:45:08.104Z,73.65
2018-11-02T11:46:08.318Z,73.55
2018-11-02T11:47:08.549Z,73.08
2018-11-02T11:48:08.653Z,72.98
2018-11-02T11:49:08.769Z,72.60
2018-11-02T11:50:08.965Z,72.79
2018-11-02T11:51:09.048Z,72.69
2018-11-02T11:52:09.575Z,72.88
2018-11-02T11:53:09.414Z,72.50
2018-11-02T11:54:09.533Z,72.98
2018-11-02T11:55:09.733Z,72.79
2018-11-02T11:56:09.980Z,72.98
2018-11-02T11:57:10.092Z,72.79
2018-11-02T11:58:10.198Z,72.79
2018-11-02T11:59:10.362Z,72.41
2018-11-02T12:00:11.891Z,72.98
2018-11-02T12:01:10.679Z,72.41
2018-11-02T12:02:10.860Z,72.41
2018-11-02T12:03:10.904Z,72.31
2018-11-02T12:04:11.143Z,73.27
2018-11-02T12:05:11.205Z,72.41
2018-11-02T12:06:11.400Z,73.04
2018-11-02T12:07:11.639Z,72.31
2018-11-02T12:08:11.701Z,72.69
2018-11-02T12:09:11.958Z,72.50
2018-11-02T12:10:12.083Z,71.83
2018-11-02T12:11:12.155Z,71.83
2018-11-02T12:12:12.386Z,71.93
2018-11-02T12:13:12.502Z,72.02
2018-11-02T12:14:12.634Z,72.60
2018-11-02T12:15:12.813Z,72.50
2018-11-02T12:16:12.941Z,71.73
2018-11-02T12:17:12.978Z,71.68
2018-11-02T12:18:13.105Z,70.62
2018-11-02T12:19:13.213Z,70.34
2018-11-02T12:20:13.402Z,70.53
2018-11-02T12:21:13.437Z,69.86
2018-11-02T12:22:13.577Z,69.86
2018-11-02T12:23:13.689Z,70.72
2018-11-02T12:24:13.792Z,70.53
2018-11-02T12:25:13.932Z,70.15
2018-11-02T12:26:14.034Z,70.24
2018-11-02T12:27:14.133Z,70.24
2018-11-02T12:28:14.280Z,69.95
2018-11-02T12:29:14.371Z,70.15
2018-11-02T12:30:14.577Z,70.53
2018-11-02T12:31:14.716Z,71.01
2018-11-02T12:32:15.932Z,70.72
2018-11-02T12:33:17.431Z,70.43
2018-11-02T12:34:15.174Z,70.05
2018-11-02T12:35:15.253Z,70.15
2018-11-02T12:36:15.746Z,70.15
2018-11-02T12:37:15.782Z,70.62
2018-11-02T12:38:15.900Z,70.34
2018-11-02T12:39:16.710Z,70.81
2018-11-02T12:40:16.145Z,71.01
2018-11-02T12:41:16.382Z,70.62
2018-11-02T12:42:16.500Z,70.43
2018-11-02T12:43:17.221Z,70.62
2018-11-02T12:44:16.724Z,70.62
2018-11-02T12:45:16.833Z,70.43
2018-11-02T12:46:17.256Z,70.24
2018-11-02T12:47:17.111Z,69.76
2018-11-02T12:48:17.240Z,69.86
2018-11-02T12:49:17.560Z,70.62
2018-11-02T12:50:17.729Z,71.58
2018-11-02T12:51:17.725Z,71.68
2018-11-02T12:52:17.869Z,72.44
2018-11-02T12:53:17.939Z,72.22
2018-11-02T12:54:18.156Z,71.64